Flight Track Log - Related Links

Times and Time Zones

All times are in EDT time to prevent confusion due to time zone crossing. See the SWA2702 flight status page for this flight to view local times or setup timezone preferences in your user account.

Time Position Orientation Groundspeed Altitude Reporting Facility
EDT Latitude Longitude Course Direction KTS MPH feet Rate Location/Type
Mon 11:09:11 AM 33.6500 -117.8833 203° Southwest 138 159 1,700  Level Southern California TRACON
Mon 11:10:11 AM 33.6167 -117.9000 203° Southwest 150 173 3,200 1,277 Climbing Southern California TRACON
Mon 11:10:45 AM 33.5919 -117.8972 175° South 148 170 3,700 2,500 Climbing Los Angeles Center
Mon 11:11:47 AM 33.5342 -117.9233 201° Southwest 208 239 7,200 3,097 Climbing Los Angeles Center
Mon 11:12:49 AM 33.4706 -117.9664 209° Southwest 251 289 10,100 3,290 Climbing Los Angeles Center
Mon 11:13:51 AM 33.4425 -118.0747 253° West 285 328 14,000 3,290 Climbing Los Angeles Center
Mon 11:14:53 AM 33.4217 -118.1761 256° West 304 350 16,900 2,710 Climbing Los Angeles Center
Mon 11:15:55 AM 33.4094 -118.2903 263° West 337 388 19,600 2,736 Climbing Los Angeles Center
Mon 11:16:58 AM 33.4769 -118.3825 311° West 363 418 22,600 2,112 Climbing Los Angeles Center
Mon 11:18:00 AM 33.5472 -118.4767 312° West 372 428 24,000 677 Climbing Los Angeles Center
Mon 11:19:02 AM 33.6183 -118.5708 312° West 376 433 24,000  Level Los Angeles Center
Mon 11:20:04 AM 33.6883 -118.6650 312° West 373 429 24,000 677 Level Los Angeles Center
Mon 11:21:06 AM 33.7597 -118.7603 312° West 379 436 25,400 1,935 Climbing Los Angeles Center
Mon 11:22:08 AM 33.8486 -118.8775 312° West 394 453 28,000 2,032 Climbing Los Angeles Center
Mon 11:23:10 AM 33.9233 -118.9797 311° West 404 465 29,600 1,597 Climbing Los Angeles Center
Mon 11:24:12 AM 34.0036 -119.0861 312° West 425 489 31,300 1,790 Climbing Los Angeles Center
Mon 11:25:14 AM 34.0825 -119.1925 312° West 425 489 33,300 1,790 Climbing Los Angeles Center
Mon 11:26:16 AM 34.1603 -119.2981 312° West 423 487 35,000 1,790 Climbing Los Angeles Center
Mon 11:27:18 AM 34.2383 -119.4044 312° West 422 486 37,000 1,887 Climbing Los Angeles Center
Mon 11:28:20 AM 34.3275 -119.5258 312° West 404 465 38,900 1,392 Climbing Los Angeles Center
Mon 11:29:23 AM 34.4019 -119.6272 312° West 402 463 39,900 528 Climbing Los Angeles Center
Mon 11:30:25 AM 34.4750 -119.7283 311° West 400 460 40,000 48 Climbing Los Angeles Center
Mon 11:31:27 AM 34.5539 -119.8233 315° West 400 460 40,000  Level Los Angeles Center
Mon 11:32:29 AM 34.6506 -119.9256 319° Northwest 409 471 40,000  Level Los Angeles Center
Mon 11:33:31 AM 34.7339 -120.0172 318° Northwest 405 466 40,000  Level Los Angeles Center
Mon 11:34:33 AM 34.8217 -120.1111 319° Northwest 405 466 40,000  Level Los Angeles Center
Mon 11:35:35 AM 34.9028 -120.2019 317° Northwest 401 461 40,000  Level Los Angeles Center
Mon 11:36:37 AM 34.9853 -120.2922 318° Northwest 401 461 40,000  Level Los Angeles Center
Mon 11:37:39 AM 35.0686 -120.3825 318° Northwest 403 464 40,000  Level Los Angeles Center
Mon 11:38:41 AM 35.1494 -120.4728 318° Northwest 399 459 40,000  Level Los Angeles Center
Mon 11:39:43 AM 35.2469 -120.5806 318° Northwest 397 457 40,000  Level Los Angeles Center
Mon 11:40:45 AM 35.3286 -120.6736 317° Northwest 402 463 40,000  Level Los Angeles Center
Mon 11:41:48 AM 35.4200 -120.7539 324° Northwest 406 467 40,000  Level Los Angeles Center
Mon 11:42:50 AM 35.5111 -120.8353 324° Northwest 407 468 40,000  Level Los Angeles Center
Mon 11:43:52 AM 35.6022 -120.9175 324° Northwest 407 468 40,000  Level Los Angeles Center
Mon 11:44:54 AM 35.6994 -121.0039 324° Northwest 403 464 40,000  Level Los Angeles Center
Mon 11:45:56 AM 35.7889 -121.0850 324° Northwest 399 459 40,000 -194 Level Los Angeles Center
Mon 11:46:58 AM 35.8961 -121.1819 324° Northwest 398 458 39,600 -1,087 Descending Los Angeles Center
Mon 11:48:03 AM 35.9831 -121.2625 323° Northwest 392 451 37,700 -2,173 Descending Oakland Center
Mon 11:49:05 AM 36.0706 -121.3425 324° Northwest 390 449 35,000 -1,902 Descending Oakland Center
Mon 11:50:06 AM 36.1572 -121.4206 324° Northwest 385 443 33,800 -1,171 Descending Oakland Center
Mon 11:51:08 AM 36.2433 -121.4994 324° Northwest 385 443 32,600 -1,805 Descending Oakland Center
Mon 11:52:09 AM 36.3292 -121.5786 323° Northwest 384 442 30,100 -2,585 Descending Oakland Center
Mon 11:53:11 AM 36.4261 -121.6692 323° Northwest 367 422 27,300 -2,419 Descending Oakland Center
Mon 11:54:18 AM 36.5167 -121.7500 324° Northwest 356 410 24,900 -2,031 Descending Northern Cal TRACON
Mon 11:55:18 AM 36.5833 -121.8167 321° Northwest 338 389 23,000 -1,950 Descending Northern Cal TRACON
Mon 11:56:18 AM 36.6667 -121.8833 327° Northwest 340 391 21,000 -2,053 Descending Northern Cal TRACON
Mon 11:57:12 AM 36.7333 -121.9500 321° Northwest 326 375 19,100 -2,053 Descending Northern Cal TRACON
Mon 11:58:12 AM 36.8167 -121.9833 342° North 327 376 17,100 -1,952 Descending Northern Cal TRACON
Mon 11:59:18 AM 36.9167 -122.0000 352° North 313 360 15,000 -1,952 Descending Northern Cal TRACON
Mon 12:00:18 PM 37.0000 -122.0333 342° North 298 343 13,000 -2,000 Descending Northern Cal TRACON
Mon 12:01:12 PM 37.0667 -122.0500 349° North 287 330 11,200 -1,474 Descending Northern Cal TRACON
Mon 12:02:12 PM 37.1500 -122.0667 351° North 285 328 10,200 -1,053 Descending Northern Cal TRACON
Mon 12:03:06 PM 37.2167 -122.0833 349° North 254 292 9,200 -986 Descending Northern Cal TRACON
Mon 12:03:25 PM 37.2175 -122.0875 284° West 261 300 9,000 -1,185 Descending Oakland Center
Mon 12:04:27 PM 37.2847 -122.1056 348° North 250 288 7,600 -1,122 Descending Oakland Center
Mon 12:05:28 PM 37.3592 -122.1247 348° North 227 261 6,700 -970 Descending Oakland Center
Mon 12:06:06 PM 37.4000 -122.1167 North 218 251 6,000 -1,109 Descending Northern Cal TRACON
Mon 12:07:00 PM 37.4500 -122.1167 360° North 213 245 5,000 -1,053 Descending Northern Cal TRACON
Mon 12:08:00 PM 37.5000 -122.1167 360° North 215 247 4,000 -1,043 Descending Northern Cal TRACON
Mon 12:08:32 PM 37.5208 -122.1456 312° West 206 237 3,400 -766 Descending Oakland Center
Mon 12:09:34 PM 37.5444 -122.2014 298° West 192 221 2,800 -732 Descending Oakland Center
Mon 12:10:35 PM 37.5647 -122.2500 298° West 174 200 1,900 -829 Descending Oakland Center
Mon 12:11:37 PM 37.5847 -122.2969 298° West 162 186 1,100 -732 Descending Oakland Center
Mon 12:12:38 PM 37.6003 -122.3361 297° West 143 165 400 10,279 Descending Oakland Center
Mon 12:13:39 PM 37.6178 -122.3756 299° West 131 151 22,000 21,246 Climbing Oakland Center
Mon 12:15:00 PM 37.6167 -122.3667 322° Northwest  Level FlightAware Approximate

Login

Don't have an account? Register now (free) for customized features, flight alerts, and more!